createdAt,value
2023-04-18T00:02:17.795Z,6.86
2023-04-18T00:05:47.656Z,6.85
2023-04-18T00:09:12.906Z,6.84
2023-04-18T00:12:40.173Z,6.82
2023-04-18T00:16:08.812Z,6.82
2023-04-18T00:19:35.821Z,6.82
2023-04-18T00:23:02.657Z,6.83
2023-04-18T00:26:29.556Z,6.83
2023-04-18T00:29:57.256Z,6.83
2023-04-18T00:33:24.076Z,6.82
2023-04-18T00:36:51.972Z,6.84
2023-04-18T00:40:18.772Z,6.84
2023-04-18T00:43:45.804Z,6.85
2023-04-18T00:47:13.004Z,6.86
2023-04-18T00:50:41.636Z,6.86
2023-04-18T00:54:13.218Z,6.87
2023-04-18T00:57:40.446Z,6.89
2023-04-18T01:01:08.237Z,6.89
2023-04-18T01:04:35.710Z,6.89
2023-04-18T01:08:03.015Z,6.89
2023-04-18T01:11:30.042Z,6.90
2023-04-18T01:14:57.306Z,6.89
2023-04-18T01:18:24.511Z,6.90
2023-04-18T01:21:53.478Z,6.89
2023-04-18T01:25:20.558Z,6.87
2023-04-18T01:28:47.603Z,6.86
2023-04-18T01:32:14.457Z,6.85
2023-04-18T01:35:41.538Z,6.84
2023-04-18T01:39:09.479Z,6.83
2023-04-18T01:42:36.325Z,6.82
2023-04-18T01:46:03.436Z,6.80
2023-04-18T01:49:30.671Z,6.79
2023-04-18T01:52:57.457Z,6.78
2023-04-18T01:56:24.407Z,6.77
2023-04-18T01:59:51.502Z,6.76
2023-04-18T02:03:18.647Z,6.75
2023-04-18T02:06:45.819Z,6.74
2023-04-18T02:10:13.879Z,6.75
2023-04-18T02:13:40.857Z,6.76
2023-04-18T02:17:08.087Z,6.76
2023-04-18T02:20:36.382Z,6.77
2023-04-18T02:24:03.164Z,6.78
2023-04-18T02:27:30.333Z,6.79
2023-04-18T02:30:57.325Z,6.79
2023-04-18T02:34:24.178Z,6.78
2023-04-18T02:37:51.236Z,6.77
2023-04-18T02:41:19.605Z,6.75
2023-04-18T02:44:47.158Z,6.74
2023-04-18T02:48:14.571Z,6.73
2023-04-18T02:51:41.792Z,6.73
2023-04-18T02:55:09.893Z,6.72
2023-04-18T02:58:39.000Z,6.72
2023-04-18T03:02:35.573Z,6.72
2023-04-18T03:06:12.775Z,6.71
2023-04-18T03:09:40.142Z,6.71
2023-04-18T03:13:16.329Z,6.70
2023-04-18T03:16:44.095Z,6.69
2023-04-18T03:20:13.706Z,6.68
2023-04-18T03:23:40.925Z,6.68
2023-04-18T03:27:08.334Z,6.68
2023-04-18T03:30:37.419Z,6.69
2023-04-18T03:34:05.232Z,6.69
2023-04-18T03:37:32.446Z,6.70
2023-04-18T03:41:00.444Z,6.69
2023-04-18T03:44:32.543Z,6.70
2023-04-18T03:47:59.434Z,6.70
2023-04-18T03:51:27.473Z,6.70
2023-04-18T03:54:54.526Z,6.72
2023-04-18T03:58:25.006Z,6.74
2023-04-18T04:01:55.970Z,6.75
2023-04-18T04:05:23.216Z,6.78
2023-04-18T04:08:50.897Z,6.80
2023-04-18T04:12:21.377Z,6.81
2023-04-18T04:15:48.345Z,6.84
2023-04-18T04:19:16.157Z,6.86
2023-04-18T04:22:54.002Z,6.88
2023-04-18T04:26:23.347Z,6.92
2023-04-18T04:29:57.908Z,6.96
2023-04-18T04:33:28.727Z,6.97
2023-04-18T04:37:00.871Z,7.01
2023-04-18T04:40:28.617Z,7.03
2023-04-18T04:44:04.936Z,7.06
2023-04-18T04:47:34.258Z,7.10
2023-04-18T04:51:02.467Z,7.13
2023-04-18T04:54:29.524Z,7.15
2023-04-18T04:57:57.480Z,7.18
2023-04-18T05:01:38.861Z,7.21
2023-04-18T05:05:06.764Z,7.25
2023-04-18T05:08:34.130Z,7.26
2023-04-18T05:12:03.527Z,7.29
2023-04-18T05:15:30.722Z,7.33
2023-04-18T05:18:57.620Z,7.35
2023-04-18T05:22:24.474Z,7.38
2023-04-18T05:25:51.628Z,7.40
2023-04-18T05:29:18.563Z,7.42
2023-04-18T05:32:45.836Z,7.46
2023-04-18T05:36:13.381Z,7.51
2023-04-18T05:39:40.544Z,7.56
2023-04-18T05:43:07.683Z,7.64
2023-04-18T05:46:34.856Z,7.70
2023-04-18T05:50:01.791Z,7.77
2023-04-18T05:53:29.022Z,7.83
2023-04-18T05:56:57.137Z,7.93
2023-04-18T06:00:25.057Z,8.03
2023-04-18T06:03:52.160Z,8.11
2023-04-18T06:07:19.451Z,8.18
2023-04-18T06:10:46.440Z,8.27
2023-04-18T06:14:13.727Z,8.37
2023-04-18T06:17:40.851Z,8.53
2023-04-18T06:21:08.608Z,8.78
2023-04-18T06:24:35.707Z,9.10
2023-04-18T06:28:02.737Z,9.36
2023-04-18T06:31:29.783Z,9.54
2023-04-18T06:34:56.801Z,9.79
2023-04-18T06:38:23.689Z,9.92
2023-04-18T06:41:50.637Z,10.23
2023-04-18T06:45:26.735Z,10.51
2023-04-18T06:48:53.857Z,10.74
2023-04-18T06:52:20.775Z,10.95
2023-04-18T06:55:47.854Z,10.95
2023-04-18T06:59:14.833Z,11.00
2023-04-18T07:02:42.703Z,11.09
2023-04-18T07:06:10.992Z,11.29
2023-04-18T07:09:38.085Z,11.58
2023-04-18T07:13:05.152Z,11.95
2023-04-18T07:16:32.048Z,11.97
2023-04-18T07:19:59.010Z,11.67
2023-04-18T07:23:25.992Z,11.55
2023-04-18T07:26:54.892Z,11.40
2023-04-18T07:30:22.346Z,11.23
2023-04-18T07:33:49.269Z,11.07
2023-04-18T07:37:17.566Z,11.10
2023-04-18T07:40:45.892Z,11.23
2023-04-18T07:44:13.165Z,11.35
2023-04-18T07:47:40.201Z,11.37
2023-04-18T07:51:07.937Z,11.37
2023-04-18T07:54:34.886Z,11.32
2023-04-18T07:58:01.913Z,11.31
2023-04-18T08:01:29.193Z,11.24
2023-04-18T08:04:56.529Z,11.11
2023-04-18T08:08:23.607Z,11.06
2023-04-18T08:11:50.482Z,11.14
2023-04-18T08:15:17.381Z,11.24
2023-04-18T08:18:44.302Z,11.30
2023-04-18T08:22:12.157Z,11.41
2023-04-18T08:25:38.958Z,11.60
2023-04-18T08:29:06.494Z,11.80
2023-04-18T08:32:34.011Z,12.01
2023-04-18T08:36:01.278Z,12.08
2023-04-18T08:39:28.257Z,12.20
2023-04-18T08:42:56.690Z,12.34
2023-04-18T08:46:24.106Z,12.55
2023-04-18T08:49:52.298Z,12.78
2023-04-18T08:53:19.687Z,13.07
2023-04-18T08:56:46.726Z,13.21
2023-04-18T09:00:15.795Z,13.25
2023-04-18T09:03:44.249Z,13.26
2023-04-18T09:07:12.635Z,13.27
2023-04-18T09:10:43.055Z,13.28
2023-04-18T09:14:24.638Z,13.37
2023-04-18T09:17:54.023Z,13.53
2023-04-18T09:21:21.772Z,13.50
2023-04-18T09:24:58.654Z,13.60
2023-04-18T09:28:28.200Z,13.88
2023-04-18T09:32:02.850Z,14.20
2023-04-18T09:35:30.160Z,14.43
2023-04-18T09:38:57.465Z,14.58
2023-04-18T09:42:27.435Z,14.55
2023-04-18T09:45:55.584Z,14.47
2023-04-18T09:49:23.441Z,14.34
2023-04-18T09:52:51.411Z,14.15
2023-04-18T09:56:26.613Z,14.06
2023-04-18T09:59:58.795Z,14.05
2023-04-18T10:03:34.571Z,14.26
2023-04-18T10:07:01.951Z,14.23
2023-04-18T10:10:29.053Z,14.10
2023-04-18T10:13:59.847Z,13.99
2023-04-18T10:17:29.764Z,14.03
2023-04-18T10:21:04.250Z,13.96
2023-04-18T10:24:57.235Z,13.94
2023-04-18T10:28:24.553Z,14.14
2023-04-18T10:31:51.751Z,14.26
2023-04-18T10:35:22.208Z,14.19
2023-04-18T10:38:53.028Z,14.11
2023-04-18T10:42:19.995Z,14.21
2023-04-18T10:46:10.105Z,14.03
2023-04-18T10:49:53.896Z,13.93
2023-04-18T10:53:19.385Z,14.13
2023-04-18T10:56:55.225Z,14.28
2023-04-18T11:00:23.772Z,14.33
2023-04-18T11:03:50.895Z,14.53
2023-04-18T11:07:18.179Z,14.62
2023-04-18T11:10:57.770Z,14.73
2023-04-18T11:14:23.274Z,14.80
2023-04-18T11:17:58.950Z,15.01
2023-04-18T11:21:30.473Z,15.23
2023-04-18T11:25:02.246Z,15.20
2023-04-18T11:28:29.728Z,15.25
2023-04-18T11:31:58.648Z,15.44
2023-04-18T11:35:26.337Z,15.63
2023-04-18T11:38:53.598Z,15.59
2023-04-18T11:42:21.453Z,15.35
2023-04-18T11:45:55.867Z,15.35
2023-04-18T11:49:31.611Z,15.36
2023-04-18T11:52:59.003Z,15.16
2023-04-18T11:56:26.265Z,14.76
2023-04-18T11:59:56.284Z,14.58
2023-04-18T12:03:25.139Z,14.56
2023-04-18T12:06:53.924Z,14.55
2023-04-18T12:10:29.875Z,14.48
2023-04-18T12:13:59.558Z,14.38
2023-04-18T12:17:28.790Z,14.33
2023-04-18T12:21:02.570Z,14.36
2023-04-18T12:24:29.889Z,14.43
2023-04-18T12:27:59.847Z,14.47
2023-04-18T12:31:28.751Z,14.43
2023-04-18T12:34:56.557Z,14.49
2023-04-18T12:38:24.421Z,14.52
2023-04-18T12:41:51.697Z,14.70
2023-04-18T12:45:19.862Z,14.94
2023-04-18T12:48:46.983Z,14.99
2023-04-18T12:52:13.841Z,15.05
2023-04-18T12:55:40.894Z,15.19
2023-04-18T12:59:07.768Z,15.34
2023-04-18T13:02:37.273Z,15.42
2023-04-18T13:06:04.860Z,15.67
2023-04-18T13:09:31.842Z,15.74
2023-04-18T13:12:58.594Z,15.67
2023-04-18T13:16:25.610Z,15.62
2023-04-18T13:19:53.090Z,15.53
2023-04-18T13:23:19.990Z,15.52
2023-04-18T13:26:47.050Z,15.50
2023-04-18T13:30:14.907Z,15.48
2023-04-18T13:33:42.297Z,15.64
2023-04-18T13:37:09.350Z,15.77
2023-04-18T13:40:38.796Z,15.92
2023-04-18T13:44:06.380Z,15.90
2023-04-18T13:47:33.430Z,15.75
2023-04-18T13:51:00.455Z,15.70
2023-04-18T13:54:28.584Z,15.69
2023-04-18T13:57:55.893Z,15.63
2023-04-18T14:01:23.067Z,15.63
2023-04-18T14:04:54.857Z,15.61
2023-04-18T14:08:21.854Z,15.69
2023-04-18T14:11:48.696Z,15.72
2023-04-18T14:15:16.800Z,15.58
2023-04-18T14:18:43.757Z,15.33
2023-04-18T14:22:11.045Z,15.14
2023-04-18T14:25:38.063Z,15.05
2023-04-18T14:29:05.364Z,15.01
2023-04-18T14:32:32.585Z,14.94
2023-04-18T14:35:59.590Z,14.85
2023-04-18T14:39:26.555Z,14.74
2023-04-18T14:42:53.550Z,14.70
2023-04-18T14:46:21.791Z,14.73
2023-04-18T14:49:48.732Z,14.69
2023-04-18T14:53:15.900Z,14.64
2023-04-18T14:56:42.908Z,14.62
2023-04-18T15:00:12.726Z,14.61
2023-04-18T15:03:40.425Z,14.64
2023-04-18T15:07:07.724Z,14.69
2023-04-18T15:10:34.541Z,14.78
2023-04-18T15:14:01.478Z,14.86
2023-04-18T15:17:29.324Z,14.91
2023-04-18T15:20:57.089Z,14.92
2023-04-18T15:24:24.146Z,14.80
2023-04-18T15:27:51.178Z,14.71
2023-04-18T15:31:20.802Z,14.60
2023-04-18T15:34:49.996Z,14.56
2023-04-18T15:38:19.326Z,14.58
2023-04-18T15:41:48.171Z,14.66
2023-04-18T15:45:16.544Z,14.67
2023-04-18T15:48:45.805Z,14.68
2023-04-18T15:52:16.265Z,14.73
2023-04-18T15:55:47.929Z,14.69
2023-04-18T15:59:17.586Z,14.61
2023-04-18T16:02:46.838Z,14.56
2023-04-18T16:06:15.689Z,14.52
2023-04-18T16:09:44.231Z,14.46
2023-04-18T16:13:12.416Z,14.40
2023-04-18T16:16:41.514Z,14.40
2023-04-18T16:20:11.834Z,14.38
2023-04-18T16:23:39.550Z,14.36
2023-04-18T16:27:07.260Z,14.29
2023-04-18T16:30:35.815Z,14.20
2023-04-18T16:34:04.988Z,14.16
2023-04-18T16:37:33.824Z,14.16
2023-04-18T16:41:02.154Z,14.16
2023-04-18T16:44:33.632Z,14.18
2023-04-18T16:48:02.556Z,14.22
2023-04-18T16:51:34.081Z,14.22
2023-04-18T16:55:03.318Z,14.20
2023-04-18T16:58:31.666Z,14.17
2023-04-18T17:02:00.206Z,14.11
2023-04-18T17:05:28.137Z,14.05
2023-04-18T17:08:57.862Z,13.99
2023-04-18T17:12:29.776Z,13.92
2023-04-18T17:15:58.098Z,13.86
2023-04-18T17:19:26.810Z,13.79
2023-04-18T17:22:54.512Z,13.73
2023-04-18T17:26:24.323Z,13.67
2023-04-18T17:29:51.277Z,13.60
2023-04-18T17:33:18.295Z,13.53
2023-04-18T17:36:45.342Z,13.46
2023-04-18T17:40:13.974Z,13.39
2023-04-18T17:43:41.261Z,13.33
2023-04-18T17:47:08.516Z,13.28
2023-04-18T17:50:37.059Z,13.20
2023-04-18T17:54:05.535Z,13.12
2023-04-18T17:57:33.787Z,13.06
2023-04-18T18:01:00.635Z,13.00
2023-04-18T18:04:27.981Z,12.93
2023-04-18T18:07:56.297Z,12.85
2023-04-18T18:11:24.413Z,12.80
2023-04-18T18:14:51.545Z,12.79
2023-04-18T18:18:19.126Z,12.77
2023-04-18T18:21:47.555Z,12.76
2023-04-18T18:25:15.218Z,12.74
2023-04-18T18:28:43.583Z,12.72
2023-04-18T18:32:12.211Z,12.70
2023-04-18T18:35:44.340Z,12.69
2023-04-18T18:39:14.797Z,12.66
2023-04-18T18:42:45.749Z,12.63
2023-04-18T18:46:13.182Z,12.61
2023-04-18T18:49:41.144Z,12.58
2023-04-18T18:53:09.837Z,12.55
2023-04-18T18:56:38.904Z,12.52
2023-04-18T19:00:12.030Z,12.50
2023-04-18T19:03:41.074Z,12.46
2023-04-18T19:07:09.352Z,12.41
2023-04-18T19:10:36.642Z,12.37
2023-04-18T19:14:04.288Z,12.32
2023-04-18T19:17:32.053Z,12.27
2023-04-18T19:21:00.174Z,12.24
2023-04-18T19:24:28.294Z,12.19
2023-04-18T19:27:55.416Z,12.15
2023-04-18T19:31:22.406Z,12.10
2023-04-18T19:34:50.927Z,12.04
2023-04-18T19:38:18.108Z,11.99
2023-04-18T19:41:46.113Z,11.95
2023-04-18T19:45:15.188Z,11.89
2023-04-18T19:48:42.084Z,11.82
2023-04-18T19:52:09.265Z,11.76
2023-04-18T19:55:36.314Z,11.69
2023-04-18T19:59:06.110Z,11.61
2023-04-18T20:02:31.590Z,11.52
2023-04-18T20:05:58.886Z,11.41
2023-04-18T20:09:25.803Z,11.30
2023-04-18T20:12:52.706Z,11.21
2023-04-18T20:16:19.624Z,11.10
2023-04-18T20:19:49.851Z,11.02
2023-04-18T20:23:16.894Z,10.95
2023-04-18T20:26:43.995Z,10.87
2023-04-18T20:30:11.841Z,10.79
2023-04-18T20:33:38.947Z,10.74
2023-04-18T20:37:07.696Z,10.68
2023-04-18T20:40:35.153Z,10.62
2023-04-18T20:44:05.193Z,10.57
2023-04-18T20:47:33.454Z,10.51
2023-04-18T20:51:00.416Z,10.46
2023-04-18T20:54:27.562Z,10.43
2023-04-18T20:57:54.493Z,10.38
2023-04-18T21:01:21.869Z,10.34
2023-04-18T21:04:49.385Z,10.31
2023-04-18T21:08:16.532Z,10.27
2023-04-18T21:11:43.837Z,10.24
2023-04-18T21:15:12.746Z,10.19
2023-04-18T21:18:40.621Z,10.14
2023-04-18T21:22:11.694Z,10.11
2023-04-18T21:25:38.613Z,10.08
2023-04-18T21:29:06.632Z,10.04
2023-04-18T21:32:33.473Z,10.02
2023-04-18T21:36:00.645Z,10.00
2023-04-18T21:39:28.287Z,9.95
2023-04-18T21:42:55.216Z,9.92
2023-04-18T21:46:23.118Z,9.88
2023-04-18T21:49:50.706Z,9.85
2023-04-18T21:53:18.190Z,9.81
2023-04-18T21:56:44.965Z,9.79
2023-04-18T22:00:13.787Z,9.76
2023-04-18T22:03:41.014Z,9.73
2023-04-18T22:07:08.842Z,9.68
2023-04-18T22:10:36.571Z,9.64
2023-04-18T22:14:06.871Z,9.60
2023-04-18T22:17:38.063Z,9.56
2023-04-18T22:21:05.277Z,9.51
2023-04-18T22:24:32.413Z,9.46
2023-04-18T22:27:59.453Z,9.42
2023-04-18T22:31:26.272Z,9.35
2023-04-18T22:34:53.314Z,9.29
2023-04-18T22:38:20.255Z,9.23
2023-04-18T22:41:47.154Z,9.18
2023-04-18T22:45:14.602Z,9.13
2023-04-18T22:48:41.471Z,9.08
2023-04-18T22:52:09.120Z,9.04
2023-04-18T22:55:38.568Z,8.98
2023-04-18T22:59:05.526Z,8.93
2023-04-18T23:02:32.691Z,8.89
2023-04-18T23:05:59.854Z,8.84
2023-04-18T23:09:27.632Z,8.80
2023-04-18T23:12:54.804Z,8.75
2023-04-18T23:16:21.692Z,8.69
2023-04-18T23:19:48.546Z,8.65
2023-04-18T23:23:15.412Z,8.60
2023-04-18T23:26:42.463Z,8.54
2023-04-18T23:30:11.653Z,8.46
2023-04-18T23:33:38.439Z,8.36
2023-04-18T23:37:05.243Z,8.24
2023-04-18T23:40:32.338Z,8.13
2023-04-18T23:43:59.916Z,8.03
2023-04-18T23:47:26.967Z,7.95
2023-04-18T23:50:54.468Z,7.86
2023-04-18T23:54:21.371Z,7.77
2023-04-18T23:57:48.364Z,7.68
